sensor_id;sensor_type;location;lat;lon;timestamp;P1;durP1;ratioP1;P2;durP2;ratioP2
30010;SDS011;16851;53.564;8.112;2022-11-14T00:01:44;46.00;;;31.00;;
30010;SDS011;16851;53.564;8.112;2022-11-14T00:07:06;45.33;;;32.07;;
30010;SDS011;16851;53.564;8.112;2022-11-14T00:12:30;44.23;;;31.33;;
30010;SDS011;16851;53.564;8.112;2022-11-14T00:17:51;47.47;;;34.10;;
30010;SDS011;16851;53.564;8.112;2022-11-14T00:23:11;50.77;;;32.20;;
30010;SDS011;16851;53.564;8.112;2022-11-14T00:28:34;49.03;;;32.00;;
30010;SDS011;16851;53.564;8.112;2022-11-14T00:33:55;49.90;;;32.90;;
30010;SDS011;16851;53.564;8.112;2022-11-14T00:39:18;44.70;;;31.87;;
30010;SDS011;16851;53.564;8.112;2022-11-14T00:44:38;50.73;;;32.47;;
30010;SDS011;16851;53.564;8.112;2022-11-14T00:50:01;48.80;;;32.27;;
30010;SDS011;16851;53.564;8.112;2022-11-14T00:55:21;52.13;;;33.60;;
30010;SDS011;16851;53.564;8.112;2022-11-14T01:00:41;48.47;;;32.03;;
30010;SDS011;16851;53.564;8.112;2022-11-14T01:06:06;49.23;;;34.20;;
30010;SDS011;16851;53.564;8.112;2022-11-14T01:11:28;45.70;;;34.20;;
30010;SDS011;16851;53.564;8.112;2022-11-14T01:16:48;48.87;;;33.70;;
30010;SDS011;16851;53.564;8.112;2022-11-14T01:22:11;49.23;;;32.93;;
30010;SDS011;16851;53.564;8.112;2022-11-14T01:27:33;47.90;;;32.97;;
30010;SDS011;16851;53.564;8.112;2022-11-14T01:32:54;54.07;;;33.93;;
30010;SDS011;16851;53.564;8.112;2022-11-14T01:38:14;51.03;;;34.13;;
30010;SDS011;16851;53.564;8.112;2022-11-14T01:43:35;48.00;;;32.43;;
30010;SDS011;16851;53.564;8.112;2022-11-14T01:49:00;45.07;;;31.57;;
30010;SDS011;16851;53.564;8.112;2022-11-14T01:54:26;46.50;;;31.73;;
30010;SDS011;16851;53.564;8.112;2022-11-14T01:59:50;45.07;;;31.77;;
30010;SDS011;16851;53.564;8.112;2022-11-14T02:05:13;48.63;;;32.97;;
30010;SDS011;16851;53.564;8.112;2022-11-14T02:10:50;44.67;;;31.27;;
30010;SDS011;16851;53.564;8.112;2022-11-14T02:16:12;47.23;;;33.10;;
30010;SDS011;16851;53.564;8.112;2022-11-14T02:21:33;46.97;;;31.73;;
30010;SDS011;16851;53.564;8.112;2022-11-14T02:26:54;45.13;;;31.70;;
30010;SDS011;16851;53.564;8.112;2022-11-14T02:32:14;46.10;;;32.00;;
30010;SDS011;16851;53.564;8.112;2022-11-14T02:37:36;46.50;;;32.23;;
30010;SDS011;16851;53.564;8.112;2022-11-14T02:42:59;49.00;;;33.13;;
30010;SDS011;16851;53.564;8.112;2022-11-14T02:48:20;46.57;;;33.03;;
30010;SDS011;16851;53.564;8.112;2022-11-14T02:53:40;45.83;;;32.13;;
30010;SDS011;16851;53.564;8.112;2022-11-14T02:59:03;45.97;;;31.60;;
30010;SDS011;16851;53.564;8.112;2022-11-14T03:04:25;48.83;;;33.77;;
30010;SDS011;16851;53.564;8.112;2022-11-14T03:09:45;46.33;;;31.20;;
30010;SDS011;16851;53.564;8.112;2022-11-14T03:15:06;45.60;;;31.97;;
30010;SDS011;16851;53.564;8.112;2022-11-14T03:20:26;45.80;;;31.73;;
30010;SDS011;16851;53.564;8.112;2022-11-14T03:25:49;47.27;;;31.30;;
30010;SDS011;16851;53.564;8.112;2022-11-14T03:31:13;48.97;;;32.40;;
30010;SDS011;16851;53.564;8.112;2022-11-14T03:36:33;49.73;;;34.13;;
30010;SDS011;16851;53.564;8.112;2022-11-14T03:41:53;50.70;;;33.63;;
30010;SDS011;16851;53.564;8.112;2022-11-14T03:47:14;46.80;;;32.80;;
30010;SDS011;16851;53.564;8.112;2022-11-14T03:52:37;49.70;;;32.90;;
30010;SDS011;16851;53.564;8.112;2022-11-14T03:57:58;44.70;;;30.17;;
30010;SDS011;16851;53.564;8.112;2022-11-14T04:03:19;47.03;;;32.00;;
30010;SDS011;16851;53.564;8.112;2022-11-14T04:08:40;49.43;;;32.53;;
30010;SDS011;16851;53.564;8.112;2022-11-14T04:14:03;43.27;;;29.50;;
30010;SDS011;16851;53.564;8.112;2022-11-14T04:19:23;44.70;;;29.63;;
30010;SDS011;16851;53.564;8.112;2022-11-14T04:24:44;44.00;;;30.30;;
30010;SDS011;16851;53.564;8.112;2022-11-14T04:30:09;44.57;;;30.67;;
30010;SDS011;16851;53.564;8.112;2022-11-14T04:35:30;44.37;;;29.10;;
30010;SDS011;16851;53.564;8.112;2022-11-14T04:40:51;43.83;;;29.87;;
30010;SDS011;16851;53.564;8.112;2022-11-14T04:46:14;48.40;;;30.53;;
30010;SDS011;16851;53.564;8.112;2022-11-14T04:51:36;44.63;;;30.23;;
30010;SDS011;16851;53.564;8.112;2022-11-14T04:56:58;46.23;;;30.20;;
30010;SDS011;16851;53.564;8.112;2022-11-14T05:02:18;45.53;;;30.53;;
30010;SDS011;16851;53.564;8.112;2022-11-14T05:07:39;47.90;;;30.50;;
30010;SDS011;16851;53.564;8.112;2022-11-14T05:13:07;47.27;;;30.00;;
30010;SDS011;16851;53.564;8.112;2022-11-14T05:18:27;45.80;;;29.83;;
30010;SDS011;16851;53.564;8.112;2022-11-14T05:23:48;47.27;;;29.93;;
30010;SDS011;16851;53.564;8.112;2022-11-14T05:29:08;48.17;;;30.87;;
30010;SDS011;16851;53.564;8.112;2022-11-14T05:34:31;47.77;;;30.50;;
30010;SDS011;16851;53.564;8.112;2022-11-14T05:39:53;50.50;;;32.77;;
30010;SDS011;16851;53.564;8.112;2022-11-14T05:45:13;49.40;;;31.07;;
30010;SDS011;16851;53.564;8.112;2022-11-14T05:50:33;50.90;;;30.03;;
30010;SDS011;16851;53.564;8.112;2022-11-14T05:55:54;53.30;;;32.00;;
30010;SDS011;16851;53.564;8.112;2022-11-14T06:01:15;50.97;;;31.87;;
30010;SDS011;16851;53.564;8.112;2022-11-14T06:06:36;50.00;;;32.17;;
30010;SDS011;16851;53.564;8.112;2022-11-14T06:11:56;52.90;;;32.60;;
30010;SDS011;16851;53.564;8.112;2022-11-14T06:17:19;50.17;;;31.63;;
30010;SDS011;16851;53.564;8.112;2022-11-14T06:22:42;51.77;;;33.40;;
30010;SDS011;16851;53.564;8.112;2022-11-14T06:28:05;51.97;;;32.90;;
30010;SDS011;16851;53.564;8.112;2022-11-14T06:33:25;55.60;;;34.43;;
30010;SDS011;16851;53.564;8.112;2022-11-14T06:38:46;54.30;;;33.97;;
30010;SDS011;16851;53.564;8.112;2022-11-14T06:44:07;50.97;;;32.60;;
30010;SDS011;16851;53.564;8.112;2022-11-14T06:49:31;57.07;;;32.47;;
30010;SDS011;16851;53.564;8.112;2022-11-14T06:54:58;52.60;;;32.87;;
30010;SDS011;16851;53.564;8.112;2022-11-14T07:00:19;54.03;;;33.30;;
30010;SDS011;16851;53.564;8.112;2022-11-14T07:05:40;53.17;;;32.67;;
30010;SDS011;16851;53.564;8.112;2022-11-14T07:11:23;58.87;;;33.70;;
30010;SDS011;16851;53.564;8.112;2022-11-14T07:16:45;56.20;;;34.90;;
30010;SDS011;16851;53.564;8.112;2022-11-14T07:22:09;53.63;;;34.07;;
30010;SDS011;16851;53.564;8.112;2022-11-14T07:27:30;53.87;;;33.70;;
30010;SDS011;16851;53.564;8.112;2022-11-14T07:32:54;59.60;;;34.23;;
30010;SDS011;16851;53.564;8.112;2022-11-14T07:38:15;59.28;;;40.38;;
30010;SDS011;16851;53.564;8.112;2022-11-14T07:43:35;56.77;;;35.50;;
30010;SDS011;16851;53.564;8.112;2022-11-14T07:48:57;60.53;;;35.50;;
30010;SDS011;16851;53.564;8.112;2022-11-14T07:54:17;57.83;;;34.20;;
30010;SDS011;16851;53.564;8.112;2022-11-14T07:59:40;56.97;;;33.53;;
30010;SDS011;16851;53.564;8.112;2022-11-14T08:05:01;60.30;;;37.13;;
30010;SDS011;16851;53.564;8.112;2022-11-14T08:10:21;60.17;;;37.87;;
30010;SDS011;16851;53.564;8.112;2022-11-14T08:15:47;63.20;;;38.20;;
30010;SDS011;16851;53.564;8.112;2022-11-14T08:21:07;63.57;;;37.33;;
30010;SDS011;16851;53.564;8.112;2022-11-14T08:26:31;60.70;;;38.67;;
30010;SDS011;16851;53.564;8.112;2022-11-14T08:31:53;63.00;;;37.73;;
30010;SDS011;16851;53.564;8.112;2022-11-14T08:37:21;61.33;;;37.57;;
30010;SDS011;16851;53.564;8.112;2022-11-14T08:42:43;61.57;;;37.57;;
30010;SDS011;16851;53.564;8.112;2022-11-14T08:48:05;57.20;;;37.00;;
30010;SDS011;16851;53.564;8.112;2022-11-14T08:53:26;56.70;;;36.20;;
30010;SDS011;16851;53.564;8.112;2022-11-14T08:58:48;62.83;;;37.87;;
30010;SDS011;16851;53.564;8.112;2022-11-14T09:04:08;61.10;;;38.27;;
30010;SDS011;16851;53.564;8.112;2022-11-14T09:09:30;64.33;;;39.33;;
30010;SDS011;16851;53.564;8.112;2022-11-14T09:14:53;62.20;;;37.73;;
30010;SDS011;16851;53.564;8.112;2022-11-14T09:20:14;62.60;;;39.07;;
30010;SDS011;16851;53.564;8.112;2022-11-14T09:25:37;59.80;;;36.50;;
30010;SDS011;16851;53.564;8.112;2022-11-14T09:31:00;60.20;;;37.33;;
30010;SDS011;16851;53.564;8.112;2022-11-14T09:36:25;58.60;;;36.37;;
30010;SDS011;16851;53.564;8.112;2022-11-14T09:47:30;58.10;;;34.73;;
30010;SDS011;16851;53.564;8.112;2022-11-14T09:58:57;56.30;;;36.07;;
30010;SDS011;16851;53.564;8.112;2022-11-14T10:11:03;56.00;;;34.70;;
30010;SDS011;16851;53.564;8.112;2022-11-14T10:16:14;52.50;;;33.30;;
30010;SDS011;16851;53.564;8.112;2022-11-14T10:27:33;49.67;;;32.07;;
30010;SDS011;16851;53.564;8.112;2022-11-14T10:38:35;49.87;;;32.53;;
30010;SDS011;16851;53.564;8.112;2022-11-14T10:43:58;48.60;;;29.70;;
30010;SDS011;16851;53.564;8.112;2022-11-14T10:49:20;47.83;;;31.37;;
30010;SDS011;16851;53.564;8.112;2022-11-14T10:54:48;50.70;;;31.17;;
30010;SDS011;16851;53.564;8.112;2022-11-14T11:00:11;49.97;;;31.27;;
30010;SDS011;16851;53.564;8.112;2022-11-14T11:05:43;52.13;;;31.77;;
30010;SDS011;16851;53.564;8.112;2022-11-14T11:11:12;47.30;;;30.70;;
30010;SDS011;16851;53.564;8.112;2022-11-14T11:16:50;47.23;;;30.73;;
30010;SDS011;16851;53.564;8.112;2022-11-14T11:22:35;46.45;;;31.25;;
30010;SDS011;16851;53.564;8.112;2022-11-14T11:28:03;50.60;;;31.43;;
30010;SDS011;16851;53.564;8.112;2022-11-14T11:33:24;48.13;;;32.07;;
30010;SDS011;16851;53.564;8.112;2022-11-14T11:38:49;46.40;;;31.23;;
30010;SDS011;16851;53.564;8.112;2022-11-14T11:44:14;48.67;;;30.80;;
30010;SDS011;16851;53.564;8.112;2022-11-14T12:01:12;46.40;;;30.53;;
30010;SDS011;16851;53.564;8.112;2022-11-14T12:06:36;48.55;;;30.73;;
30010;SDS011;16851;53.564;8.112;2022-11-14T12:12:02;47.92;;;31.50;;
30010;SDS011;16851;53.564;8.112;2022-11-14T12:17:33;44.97;;;31.50;;
30010;SDS011;16851;53.564;8.112;2022-11-14T12:33:57;45.63;;;31.00;;
30010;SDS011;16851;53.564;8.112;2022-11-14T12:39:23;49.00;;;32.00;;
30010;SDS011;16851;53.564;8.112;2022-11-14T12:44:44;46.88;;;31.00;;
30010;SDS011;16851;53.564;8.112;2022-11-14T12:50:25;42.53;;;28.27;;
30010;SDS011;16851;53.564;8.112;2022-11-14T13:18:14;39.63;;;26.17;;
30010;SDS011;16851;53.564;8.112;2022-11-14T13:24:02;41.38;;;28.00;;
30010;SDS011;16851;53.564;8.112;2022-11-14T13:35:04;40.77;;;27.10;;
30010;SDS011;16851;53.564;8.112;2022-11-14T13:51:40;35.42;;;25.00;;
30010;SDS011;16851;53.564;8.112;2022-11-14T13:57:08;36.67;;;25.27;;
30010;SDS011;16851;53.564;8.112;2022-11-14T14:25:49;38.93;;;26.67;;
30010;SDS011;16851;53.564;8.112;2022-11-14T14:31:16;37.40;;;26.17;;
30010;SDS011;16851;53.564;8.112;2022-11-14T14:36:47;40.67;;;28.80;;
30010;SDS011;16851;53.564;8.112;2022-11-14T14:42:11;39.90;;;27.67;;
30010;SDS011;16851;53.564;8.112;2022-11-14T14:47:37;42.47;;;28.10;;
30010;SDS011;16851;53.564;8.112;2022-11-14T14:53:02;42.90;;;28.33;;
30010;SDS011;16851;53.564;8.112;2022-11-14T15:04:01;45.80;;;30.17;;
30010;SDS011;16851;53.564;8.112;2022-11-14T15:09:25;46.60;;;30.23;;
30010;SDS011;16851;53.564;8.112;2022-11-14T15:14:48;43.60;;;28.83;;
30010;SDS011;16851;53.564;8.112;2022-11-14T15:20:25;41.63;;;28.03;;
30010;SDS011;16851;53.564;8.112;2022-11-14T15:25:59;45.80;;;30.90;;
30010;SDS011;16851;53.564;8.112;2022-11-14T15:31:21;48.97;;;30.80;;
30010;SDS011;16851;53.564;8.112;2022-11-14T15:42:32;47.47;;;31.37;;
30010;SDS011;16851;53.564;8.112;2022-11-14T15:47:59;51.00;;;32.43;;
30010;SDS011;16851;53.564;8.112;2022-11-14T15:53:24;45.97;;;30.13;;
30010;SDS011;16851;53.564;8.112;2022-11-14T15:58:46;46.43;;;29.90;;
30010;SDS011;16851;53.564;8.112;2022-11-14T16:04:19;53.30;;;31.77;;
30010;SDS011;16851;53.564;8.112;2022-11-14T16:09:43;49.90;;;31.33;;
30010;SDS011;16851;53.564;8.112;2022-11-14T16:15:04;51.40;;;31.90;;
30010;SDS011;16851;53.564;8.112;2022-11-14T16:20:29;49.00;;;31.10;;
30010;SDS011;16851;53.564;8.112;2022-11-14T16:25:55;48.93;;;32.47;;
30010;SDS011;16851;53.564;8.112;2022-11-14T16:31:15;49.97;;;32.00;;
30010;SDS011;16851;53.564;8.112;2022-11-14T16:36:37;49.63;;;31.90;;
30010;SDS011;16851;53.564;8.112;2022-11-14T16:42:00;48.30;;;31.23;;
30010;SDS011;16851;53.564;8.112;2022-11-14T16:47:24;48.73;;;32.10;;
30010;SDS011;16851;53.564;8.112;2022-11-14T16:52:45;54.27;;;34.90;;
30010;SDS011;16851;53.564;8.112;2022-11-14T16:58:05;52.37;;;33.83;;
30010;SDS011;16851;53.564;8.112;2022-11-14T17:03:27;51.87;;;32.80;;
30010;SDS011;16851;53.564;8.112;2022-11-14T17:08:49;56.70;;;34.43;;
30010;SDS011;16851;53.564;8.112;2022-11-14T17:14:12;61.67;;;40.43;;
30010;SDS011;16851;53.564;8.112;2022-11-14T17:19:33;56.10;;;36.27;;
30010;SDS011;16851;53.564;8.112;2022-11-14T17:24:57;49.00;;;32.80;;
30010;SDS011;16851;53.564;8.112;2022-11-14T17:30:19;60.37;;;38.93;;
30010;SDS011;16851;53.564;8.112;2022-11-14T17:35:40;54.67;;;35.17;;
30010;SDS011;16851;53.564;8.112;2022-11-14T17:41:00;56.00;;;35.87;;
30010;SDS011;16851;53.564;8.112;2022-11-14T17:46:26;51.63;;;34.47;;
30010;SDS011;16851;53.564;8.112;2022-11-14T17:51:47;58.77;;;35.27;;
30010;SDS011;16851;53.564;8.112;2022-11-14T17:57:07;55.97;;;33.77;;
30010;SDS011;16851;53.564;8.112;2022-11-14T18:02:29;53.47;;;33.73;;
30010;SDS011;16851;53.564;8.112;2022-11-14T18:07:50;53.27;;;34.87;;
30010;SDS011;16851;53.564;8.112;2022-11-14T18:13:11;60.13;;;36.10;;
30010;SDS011;16851;53.564;8.112;2022-11-14T18:18:34;57.87;;;34.90;;
30010;SDS011;16851;53.564;8.112;2022-11-14T18:23:56;55.47;;;34.60;;
30010;SDS011;16851;53.564;8.112;2022-11-14T18:29:18;55.53;;;35.80;;
30010;SDS011;16851;53.564;8.112;2022-11-14T18:34:39;53.37;;;34.37;;
30010;SDS011;16851;53.564;8.112;2022-11-14T18:40:00;53.77;;;34.53;;
30010;SDS011;16851;53.564;8.112;2022-11-14T18:45:22;61.23;;;38.50;;
30010;SDS011;16851;53.564;8.112;2022-11-14T18:50:45;53.70;;;35.23;;
30010;SDS011;16851;53.564;8.112;2022-11-14T18:56:13;60.33;;;37.87;;
30010;SDS011;16851;53.564;8.112;2022-11-14T19:01:35;57.47;;;37.03;;
30010;SDS011;16851;53.564;8.112;2022-11-14T19:06:57;59.50;;;37.97;;
30010;SDS011;16851;53.564;8.112;2022-11-14T19:12:22;64.67;;;42.80;;
30010;SDS011;16851;53.564;8.112;2022-11-14T19:17:45;55.70;;;35.87;;
30010;SDS011;16851;53.564;8.112;2022-11-14T19:23:08;54.80;;;37.17;;
30010;SDS011;16851;53.564;8.112;2022-11-14T19:28:28;61.40;;;35.67;;
30010;SDS011;16851;53.564;8.112;2022-11-14T19:33:51;59.73;;;38.80;;
30010;SDS011;16851;53.564;8.112;2022-11-14T19:39:13;60.13;;;37.53;;
30010;SDS011;16851;53.564;8.112;2022-11-14T19:44:34;60.60;;;37.77;;
30010;SDS011;16851;53.564;8.112;2022-11-14T19:49:55;58.40;;;37.67;;
30010;SDS011;16851;53.564;8.112;2022-11-14T19:55:17;66.97;;;40.40;;
30010;SDS011;16851;53.564;8.112;2022-11-14T20:00:38;64.97;;;39.63;;
30010;SDS011;16851;53.564;8.112;2022-11-14T20:05:59;59.33;;;38.83;;
30010;SDS011;16851;53.564;8.112;2022-11-14T20:11:22;63.47;;;38.83;;
30010;SDS011;16851;53.564;8.112;2022-11-14T20:16:45;58.90;;;37.30;;
30010;SDS011;16851;53.564;8.112;2022-11-14T20:22:06;64.43;;;38.93;;
30010;SDS011;16851;53.564;8.112;2022-11-14T20:27:29;60.83;;;39.37;;
30010;SDS011;16851;53.564;8.112;2022-11-14T20:32:49;58.23;;;37.67;;
30010;SDS011;16851;53.564;8.112;2022-11-14T20:38:09;54.87;;;37.17;;
30010;SDS011;16851;53.564;8.112;2022-11-14T20:43:33;56.20;;;37.03;;
30010;SDS011;16851;53.564;8.112;2022-11-14T20:48:55;58.10;;;38.03;;
30010;SDS011;16851;53.564;8.112;2022-11-14T20:54:23;54.37;;;35.90;;
30010;SDS011;16851;53.564;8.112;2022-11-14T20:59:48;55.97;;;36.73;;
30010;SDS011;16851;53.564;8.112;2022-11-14T21:05:10;50.40;;;33.13;;
30010;SDS011;16851;53.564;8.112;2022-11-14T21:10:35;49.67;;;34.33;;
30010;SDS011;16851;53.564;8.112;2022-11-14T21:16:05;50.00;;;32.83;;
30010;SDS011;16851;53.564;8.112;2022-11-14T21:21:31;47.93;;;31.87;;
30010;SDS011;16851;53.564;8.112;2022-11-14T21:26:53;46.83;;;32.20;;
30010;SDS011;16851;53.564;8.112;2022-11-14T21:32:17;46.93;;;32.23;;
30010;SDS011;16851;53.564;8.112;2022-11-14T21:37:37;47.03;;;31.67;;
30010;SDS011;16851;53.564;8.112;2022-11-14T21:42:57;44.63;;;30.93;;
30010;SDS011;16851;53.564;8.112;2022-11-14T21:48:18;45.77;;;31.10;;
30010;SDS011;16851;53.564;8.112;2022-11-14T21:53:39;47.47;;;32.97;;
30010;SDS011;16851;53.564;8.112;2022-11-14T21:59:12;48.03;;;32.23;;
30010;SDS011;16851;53.564;8.112;2022-11-14T22:04:40;48.90;;;32.90;;
30010;SDS011;16851;53.564;8.112;2022-11-14T22:10:00;54.23;;;34.90;;
30010;SDS011;16851;53.564;8.112;2022-11-14T22:15:20;48.37;;;32.97;;
30010;SDS011;16851;53.564;8.112;2022-11-14T22:20:42;47.87;;;32.97;;
30010;SDS011;16851;53.564;8.112;2022-11-14T22:26:02;48.87;;;32.23;;
30010;SDS011;16851;53.564;8.112;2022-11-14T22:31:23;46.27;;;31.30;;
30010;SDS011;16851;53.564;8.112;2022-11-14T22:36:46;47.50;;;31.30;;
30010;SDS011;16851;53.564;8.112;2022-11-14T22:42:07;47.80;;;31.80;;
30010;SDS011;16851;53.564;8.112;2022-11-14T22:47:28;44.80;;;31.07;;
30010;SDS011;16851;53.564;8.112;2022-11-14T22:52:49;45.03;;;31.00;;
30010;SDS011;16851;53.564;8.112;2022-11-14T22:58:09;43.73;;;30.83;;
30010;SDS011;16851;53.564;8.112;2022-11-14T23:03:31;46.83;;;31.23;;
30010;SDS011;16851;53.564;8.112;2022-11-14T23:08:52;44.17;;;30.80;;
30010;SDS011;16851;53.564;8.112;2022-11-14T23:14:13;42.53;;;30.43;;
30010;SDS011;16851;53.564;8.112;2022-11-14T23:19:34;42.17;;;29.00;;
30010;SDS011;16851;53.564;8.112;2022-11-14T23:24:54;41.40;;;28.43;;
30010;SDS011;16851;53.564;8.112;2022-11-14T23:30:14;41.63;;;28.57;;
30010;SDS011;16851;53.564;8.112;2022-11-14T23:35:35;40.97;;;29.60;;
30010;SDS011;16851;53.564;8.112;2022-11-14T23:41:00;40.47;;;27.50;;
30010;SDS011;16851;53.564;8.112;2022-11-14T23:46:20;41.63;;;29.13;;
30010;SDS011;16851;53.564;8.112;2022-11-14T23:51:41;42.90;;;27.60;;
30010;SDS011;16851;53.564;8.112;2022-11-14T23:57:01;42.80;;;27.73;;
